sensor_id;sensor_type;location;lat;lon;timestamp;temperature;humidity
25112;DHT22;13092;51.996;4.458;2023-01-16T00:00:32;5.80;99.90
25112;DHT22;13092;51.996;4.458;2023-01-16T00:03:02;5.80;99.90
25112;DHT22;13092;51.996;4.458;2023-01-16T00:05:31;5.90;99.90
25112;DHT22;13092;51.996;4.458;2023-01-16T00:08:00;5.90;99.90
25112;DHT22;13092;51.996;4.458;2023-01-16T00:10:31;6.00;99.90
25112;DHT22;13092;51.996;4.458;2023-01-16T00:13:00;5.80;99.90
25112;DHT22;13092;51.996;4.458;2023-01-16T00:15:28;5.80;99.90
25112;DHT22;13092;51.996;4.458;2023-01-16T00:17:57;5.80;99.90
25112;DHT22;13092;51.996;4.458;2023-01-16T00:20:25;5.80;99.90
25112;DHT22;13092;51.996;4.458;2023-01-16T00:22:54;5.80;99.90
25112;DHT22;13092;51.996;4.458;2023-01-16T00:25:25;5.90;99.90
25112;DHT22;13092;51.996;4.458;2023-01-16T00:27:53;5.80;99.90
25112;DHT22;13092;51.996;4.458;2023-01-16T00:30:21;5.80;99.90
25112;DHT22;13092;51.996;4.458;2023-01-16T00:32:49;5.80;99.90
25112;DHT22;13092;51.996;4.458;2023-01-16T00:35:17;5.90;99.90
25112;DHT22;13092;51.996;4.458;2023-01-16T00:37:46;5.90;99.90
25112;DHT22;13092;51.996;4.458;2023-01-16T00:40:14;6.00;99.90
25112;DHT22;13092;51.996;4.458;2023-01-16T00:42:44;5.80;99.90
25112;DHT22;13092;51.996;4.458;2023-01-16T00:45:13;5.70;99.90
25112;DHT22;13092;51.996;4.458;2023-01-16T00:47:41;5.70;99.90
25112;DHT22;13092;51.996;4.458;2023-01-16T00:50:10;5.70;99.90
25112;DHT22;13092;51.996;4.458;2023-01-16T00:52:38;5.60;99.90
25112;DHT22;13092;51.996;4.458;2023-01-16T00:55:07;5.60;99.90
25112;DHT22;13092;51.996;4.458;2023-01-16T00:57:35;5.60;99.90
25112;DHT22;13092;51.996;4.458;2023-01-16T01:00:07;5.60;99.90
25112;DHT22;13092;51.996;4.458;2023-01-16T01:02:35;5.60;99.90
25112;DHT22;13092;51.996;4.458;2023-01-16T01:05:04;5.60;99.90
25112;DHT22;13092;51.996;4.458;2023-01-16T01:07:33;5.50;99.90
25112;DHT22;13092;51.996;4.458;2023-01-16T01:10:02;5.50;99.90
25112;DHT22;13092;51.996;4.458;2023-01-16T01:12:30;5.50;99.90
25112;DHT22;13092;51.996;4.458;2023-01-16T01:14:58;5.50;99.90
25112;DHT22;13092;51.996;4.458;2023-01-16T01:17:28;5.50;99.90
25112;DHT22;13092;51.996;4.458;2023-01-16T01:19:57;5.70;99.90
25112;DHT22;13092;51.996;4.458;2023-01-16T01:22:25;5.60;99.90
25112;DHT22;13092;51.996;4.458;2023-01-16T01:24:53;5.60;99.90
25112;DHT22;13092;51.996;4.458;2023-01-16T01:27:22;5.60;99.90
25112;DHT22;13092;51.996;4.458;2023-01-16T01:29:50;5.60;99.90
25112;DHT22;13092;51.996;4.458;2023-01-16T01:32:18;5.60;99.90
25112;DHT22;13092;51.996;4.458;2023-01-16T01:34:48;5.60;99.90
25112;DHT22;13092;51.996;4.458;2023-01-16T01:37:16;5.60;99.90
25112;DHT22;13092;51.996;4.458;2023-01-16T01:39:44;5.50;99.90
25112;DHT22;13092;51.996;4.458;2023-01-16T01:42:14;5.50;99.90
25112;DHT22;13092;51.996;4.458;2023-01-16T01:45:09;5.50;99.90
25112;DHT22;13092;51.996;4.458;2023-01-16T01:47:41;5.50;99.90
25112;DHT22;13092;51.996;4.458;2023-01-16T01:50:17;5.50;99.90
25112;DHT22;13092;51.996;4.458;2023-01-16T01:52:47;5.50;99.90
25112;DHT22;13092;51.996;4.458;2023-01-16T01:55:16;5.60;99.90
25112;DHT22;13092;51.996;4.458;2023-01-16T01:57:47;5.60;99.90
25112;DHT22;13092;51.996;4.458;2023-01-16T02:00:21;5.60;99.90
25112;DHT22;13092;51.996;4.458;2023-01-16T02:02:52;5.60;99.90
25112;DHT22;13092;51.996;4.458;2023-01-16T02:05:27;5.80;99.90
25112;DHT22;13092;51.996;4.458;2023-01-16T02:07:57;5.60;99.90
25112;DHT22;13092;51.996;4.458;2023-01-16T02:10:30;5.60;99.90
25112;DHT22;13092;51.996;4.458;2023-01-16T02:13:01;5.60;99.90
25112;DHT22;13092;51.996;4.458;2023-01-16T02:15:29;5.60;99.90
25112;DHT22;13092;51.996;4.458;2023-01-16T02:17:58;5.70;99.90
25112;DHT22;13092;51.996;4.458;2023-01-16T02:20:57;5.60;99.90
25112;DHT22;13092;51.996;4.458;2023-01-16T02:23:58;5.70;99.90
25112;DHT22;13092;51.996;4.458;2023-01-16T02:26:54;5.70;99.90
25112;DHT22;13092;51.996;4.458;2023-01-16T02:29:52;5.60;99.90
25112;DHT22;13092;51.996;4.458;2023-01-16T02:32:37;5.60;99.90
25112;DHT22;13092;51.996;4.458;2023-01-16T02:35:26;5.60;99.90
25112;DHT22;13092;51.996;4.458;2023-01-16T02:37:59;5.70;99.90
25112;DHT22;13092;51.996;4.458;2023-01-16T02:40:38;5.80;99.90
25112;DHT22;13092;51.996;4.458;2023-01-16T02:43:17;5.70;99.90
25112;DHT22;13092;51.996;4.458;2023-01-16T02:45:51;5.80;99.90
25112;DHT22;13092;51.996;4.458;2023-01-16T02:48:28;5.60;99.90
25112;DHT22;13092;51.996;4.458;2023-01-16T02:51:04;5.60;99.90
25112;DHT22;13092;51.996;4.458;2023-01-16T02:53:38;5.60;99.90
25112;DHT22;13092;51.996;4.458;2023-01-16T02:56:11;5.60;99.90
25112;DHT22;13092;51.996;4.458;2023-01-16T02:58:43;5.60;99.90
25112;DHT22;13092;51.996;4.458;2023-01-16T03:01:11;5.60;99.90
25112;DHT22;13092;51.996;4.458;2023-01-16T03:03:43;5.60;99.90
25112;DHT22;13092;51.996;4.458;2023-01-16T03:06:30;5.60;99.90
25112;DHT22;13092;51.996;4.458;2023-01-16T03:09:14;5.60;99.90
25112;DHT22;13092;51.996;4.458;2023-01-16T03:11:52;5.70;99.90
25112;DHT22;13092;51.996;4.458;2023-01-16T03:14:33;5.60;99.90
25112;DHT22;13092;51.996;4.458;2023-01-16T03:17:12;5.60;99.90
25112;DHT22;13092;51.996;4.458;2023-01-16T03:19:53;5.70;99.90
25112;DHT22;13092;51.996;4.458;2023-01-16T03:22:31;5.50;99.90
25112;DHT22;13092;51.996;4.458;2023-01-16T03:25:18;5.60;99.90
25112;DHT22;13092;51.996;4.458;2023-01-16T03:27:55;5.50;99.90
25112;DHT22;13092;51.996;4.458;2023-01-16T03:30:28;5.50;99.90
25112;DHT22;13092;51.996;4.458;2023-01-16T03:33:02;5.50;99.90
25112;DHT22;13092;51.996;4.458;2023-01-16T03:35:37;5.60;99.90
25112;DHT22;13092;51.996;4.458;2023-01-16T03:38:10;5.50;99.90
25112;DHT22;13092;51.996;4.458;2023-01-16T03:40:41;5.60;99.90
25112;DHT22;13092;51.996;4.458;2023-01-16T03:43:13;5.80;99.90
25112;DHT22;13092;51.996;4.458;2023-01-16T03:45:44;5.60;99.90
25112;DHT22;13092;51.996;4.458;2023-01-16T03:48:17;5.50;99.90
25112;DHT22;13092;51.996;4.458;2023-01-16T03:50:51;5.60;99.90
25112;DHT22;13092;51.996;4.458;2023-01-16T03:53:23;5.60;99.90
25112;DHT22;13092;51.996;4.458;2023-01-16T03:55:58;5.60;99.90
25112;DHT22;13092;51.996;4.458;2023-01-16T03:58:48;5.60;99.90
25112;DHT22;13092;51.996;4.458;2023-01-16T04:01:22;5.60;99.90
25112;DHT22;13092;51.996;4.458;2023-01-16T04:03:58;5.60;99.90
25112;DHT22;13092;51.996;4.458;2023-01-16T04:06:34;5.70;99.90
25112;DHT22;13092;51.996;4.458;2023-01-16T04:09:10;5.60;99.90
25112;DHT22;13092;51.996;4.458;2023-01-16T04:11:40;5.70;99.90
25112;DHT22;13092;51.996;4.458;2023-01-16T04:14:10;5.70;99.90
25112;DHT22;13092;51.996;4.458;2023-01-16T04:16:39;5.70;99.90
25112;DHT22;13092;51.996;4.458;2023-01-16T04:19:12;5.70;99.90
25112;DHT22;13092;51.996;4.458;2023-01-16T04:21:45;5.70;99.90
25112;DHT22;13092;51.996;4.458;2023-01-16T04:24:15;5.70;99.90
25112;DHT22;13092;51.996;4.458;2023-01-16T04:26:43;5.60;99.90
25112;DHT22;13092;51.996;4.458;2023-01-16T04:29:12;5.60;99.90
25112;DHT22;13092;51.996;4.458;2023-01-16T04:31:40;5.60;99.90
25112;DHT22;13092;51.996;4.458;2023-01-16T04:34:09;5.60;99.90
25112;DHT22;13092;51.996;4.458;2023-01-16T04:36:37;5.60;99.90
25112;DHT22;13092;51.996;4.458;2023-01-16T04:39:06;5.60;99.90
25112;DHT22;13092;51.996;4.458;2023-01-16T04:41:35;5.60;99.90
25112;DHT22;13092;51.996;4.458;2023-01-16T04:44:08;5.60;99.90
25112;DHT22;13092;51.996;4.458;2023-01-16T04:46:37;5.50;99.90
25112;DHT22;13092;51.996;4.458;2023-01-16T04:49:06;5.60;99.90
25112;DHT22;13092;51.996;4.458;2023-01-16T04:51:34;5.60;99.90
25112;DHT22;13092;51.996;4.458;2023-01-16T04:54:09;5.50;99.90
25112;DHT22;13092;51.996;4.458;2023-01-16T04:56:38;5.50;99.90
25112;DHT22;13092;51.996;4.458;2023-01-16T04:59:06;5.60;99.90
25112;DHT22;13092;51.996;4.458;2023-01-16T05:01:35;5.60;99.90
25112;DHT22;13092;51.996;4.458;2023-01-16T05:04:05;5.50;99.90
25112;DHT22;13092;51.996;4.458;2023-01-16T05:06:33;5.50;99.90
25112;DHT22;13092;51.996;4.458;2023-01-16T05:09:03;5.50;99.90
25112;DHT22;13092;51.996;4.458;2023-01-16T05:11:34;5.50;99.90
25112;DHT22;13092;51.996;4.458;2023-01-16T05:14:02;5.50;99.90
25112;DHT22;13092;51.996;4.458;2023-01-16T05:16:32;5.50;99.90
25112;DHT22;13092;51.996;4.458;2023-01-16T05:19:00;5.70;99.90
25112;DHT22;13092;51.996;4.458;2023-01-16T05:21:28;5.50;99.90
25112;DHT22;13092;51.996;4.458;2023-01-16T05:23:56;5.50;99.90
25112;DHT22;13092;51.996;4.458;2023-01-16T05:26:26;5.40;99.90
25112;DHT22;13092;51.996;4.458;2023-01-16T05:28:56;5.50;99.90
25112;DHT22;13092;51.996;4.458;2023-01-16T05:31:27;5.40;99.90
25112;DHT22;13092;51.996;4.458;2023-01-16T05:33:58;5.50;99.90
25112;DHT22;13092;51.996;4.458;2023-01-16T05:36:26;5.50;99.90
25112;DHT22;13092;51.996;4.458;2023-01-16T05:38:54;5.50;99.90
25112;DHT22;13092;51.996;4.458;2023-01-16T05:41:23;5.40;99.90
25112;DHT22;13092;51.996;4.458;2023-01-16T05:43:51;5.70;99.90
25112;DHT22;13092;51.996;4.458;2023-01-16T05:46:21;5.50;99.90
25112;DHT22;13092;51.996;4.458;2023-01-16T05:48:49;5.50;99.90
25112;DHT22;13092;51.996;4.458;2023-01-16T05:51:17;5.50;99.90
25112;DHT22;13092;51.996;4.458;2023-01-16T05:53:49;5.40;99.90
25112;DHT22;13092;51.996;4.458;2023-01-16T05:56:20;5.40;99.90
25112;DHT22;13092;51.996;4.458;2023-01-16T05:58:52;5.40;99.90
25112;DHT22;13092;51.996;4.458;2023-01-16T06:01:22;5.40;99.90
25112;DHT22;13092;51.996;4.458;2023-01-16T06:03:51;5.60;99.90
25112;DHT22;13092;51.996;4.458;2023-01-16T06:06:25;5.50;99.90
25112;DHT22;13092;51.996;4.458;2023-01-16T06:09:09;5.50;99.90
25112;DHT22;13092;51.996;4.458;2023-01-16T06:11:54;5.60;99.90
25112;DHT22;13092;51.996;4.458;2023-01-16T06:14:25;5.50;99.90
25112;DHT22;13092;51.996;4.458;2023-01-16T06:17:01;5.50;99.90
25112;DHT22;13092;51.996;4.458;2023-01-16T06:19:36;5.60;99.90
25112;DHT22;13092;51.996;4.458;2023-01-16T06:22:18;5.50;99.90
25112;DHT22;13092;51.996;4.458;2023-01-16T06:24:54;5.50;99.90
25112;DHT22;13092;51.996;4.458;2023-01-16T06:27:40;5.50;99.90
25112;DHT22;13092;51.996;4.458;2023-01-16T06:30:13;5.50;99.90
25112;DHT22;13092;51.996;4.458;2023-01-16T06:32:43;5.50;99.90
25112;DHT22;13092;51.996;4.458;2023-01-16T06:35:13;5.60;99.90
25112;DHT22;13092;51.996;4.458;2023-01-16T06:37:41;5.60;99.90
25112;DHT22;13092;51.996;4.458;2023-01-16T06:40:10;5.70;99.90
25112;DHT22;13092;51.996;4.458;2023-01-16T06:42:38;5.60;99.90
25112;DHT22;13092;51.996;4.458;2023-01-16T06:45:07;5.80;99.90
25112;DHT22;13092;51.996;4.458;2023-01-16T06:47:38;5.60;99.90
25112;DHT22;13092;51.996;4.458;2023-01-16T06:50:09;5.70;99.90
25112;DHT22;13092;51.996;4.458;2023-01-16T06:52:38;5.70;99.90
25112;DHT22;13092;51.996;4.458;2023-01-16T06:55:11;5.70;99.90
25112;DHT22;13092;51.996;4.458;2023-01-16T06:57:44;5.70;99.90
25112;DHT22;13092;51.996;4.458;2023-01-16T07:00:17;5.70;99.90
25112;DHT22;13092;51.996;4.458;2023-01-16T07:02:51;5.70;99.90
25112;DHT22;13092;51.996;4.458;2023-01-16T07:05:25;5.70;99.90
25112;DHT22;13092;51.996;4.458;2023-01-16T07:07:54;5.70;99.90
25112;DHT22;13092;51.996;4.458;2023-01-16T07:10:35;5.70;99.90
25112;DHT22;13092;51.996;4.458;2023-01-16T07:13:07;5.70;99.90
25112;DHT22;13092;51.996;4.458;2023-01-16T07:15:44;5.60;99.90
25112;DHT22;13092;51.996;4.458;2023-01-16T07:18:31;5.70;99.90
25112;DHT22;13092;51.996;4.458;2023-01-16T07:21:23;5.60;99.90
25112;DHT22;13092;51.996;4.458;2023-01-16T07:24:28;5.60;99.90
25112;DHT22;13092;51.996;4.458;2023-01-16T07:27:07;5.60;99.90
25112;DHT22;13092;51.996;4.458;2023-01-16T07:29:53;5.70;99.90
25112;DHT22;13092;51.996;4.458;2023-01-16T07:32:31;5.70;99.90
25112;DHT22;13092;51.996;4.458;2023-01-16T07:35:39;5.60;99.90
25112;DHT22;13092;51.996;4.458;2023-01-16T07:38:55;5.60;99.90
25112;DHT22;13092;51.996;4.458;2023-01-16T07:41:47;5.60;99.90
25112;DHT22;13092;51.996;4.458;2023-01-16T07:44:25;5.60;99.90
25112;DHT22;13092;51.996;4.458;2023-01-16T07:46:56;5.60;99.90
25112;DHT22;13092;51.996;4.458;2023-01-16T07:49:32;5.70;99.90
25112;DHT22;13092;51.996;4.458;2023-01-16T07:52:01;5.60;99.90
25112;DHT22;13092;51.996;4.458;2023-01-16T07:54:34;5.70;99.90
25112;DHT22;13092;51.996;4.458;2023-01-16T07:57:31;5.60;99.90
25112;DHT22;13092;51.996;4.458;2023-01-16T08:00:06;5.70;99.90
25112;DHT22;13092;51.996;4.458;2023-01-16T08:03:00;5.60;99.90
25112;DHT22;13092;51.996;4.458;2023-01-16T08:05:35;5.60;99.90
25112;DHT22;13092;51.996;4.458;2023-01-16T08:08:46;5.70;99.90
25112;DHT22;13092;51.996;4.458;2023-01-16T08:11:29;5.70;99.90
25112;DHT22;13092;51.996;4.458;2023-01-16T08:14:38;5.70;99.90
25112;DHT22;13092;51.996;4.458;2023-01-16T08:17:38;5.70;99.90
25112;DHT22;13092;51.996;4.458;2023-01-16T08:20:08;5.70;99.90
25112;DHT22;13092;51.996;4.458;2023-01-16T08:22:41;5.70;99.90
25112;DHT22;13092;51.996;4.458;2023-01-16T08:25:10;5.70;99.90
25112;DHT22;13092;51.996;4.458;2023-01-16T08:27:39;5.80;99.90
25112;DHT22;13092;51.996;4.458;2023-01-16T08:30:09;5.80;99.90
25112;DHT22;13092;51.996;4.458;2023-01-16T08:32:37;5.80;99.90
25112;DHT22;13092;51.996;4.458;2023-01-16T08:35:06;5.80;99.90
25112;DHT22;13092;51.996;4.458;2023-01-16T08:37:35;5.80;99.90
25112;DHT22;13092;51.996;4.458;2023-01-16T08:40:04;5.80;99.90
25112;DHT22;13092;51.996;4.458;2023-01-16T08:42:32;5.80;99.90
25112;DHT22;13092;51.996;4.458;2023-01-16T08:45:20;5.90;99.90
25112;DHT22;13092;51.996;4.458;2023-01-16T08:48:09;5.90;99.90
25112;DHT22;13092;51.996;4.458;2023-01-16T08:50:56;6.10;99.90
25112;DHT22;13092;51.996;4.458;2023-01-16T08:53:42;5.90;99.90
25112;DHT22;13092;51.996;4.458;2023-01-16T08:56:10;5.90;99.90
25112;DHT22;13092;51.996;4.458;2023-01-16T08:58:38;5.90;99.90
25112;DHT22;13092;51.996;4.458;2023-01-16T09:01:08;5.90;99.90
25112;DHT22;13092;51.996;4.458;2023-01-16T09:03:36;6.00;99.90
25112;DHT22;13092;51.996;4.458;2023-01-16T09:06:05;5.90;99.90
25112;DHT22;13092;51.996;4.458;2023-01-16T09:08:33;5.90;99.90
25112;DHT22;13092;51.996;4.458;2023-01-16T09:11:01;5.90;99.90
25112;DHT22;13092;51.996;4.458;2023-01-16T09:13:46;5.90;99.90
25112;DHT22;13092;51.996;4.458;2023-01-16T09:16:21;5.90;99.90
25112;DHT22;13092;51.996;4.458;2023-01-16T09:18:49;5.90;99.90
25112;DHT22;13092;51.996;4.458;2023-01-16T09:21:17;6.10;99.90
25112;DHT22;13092;51.996;4.458;2023-01-16T09:23:46;5.90;99.90
25112;DHT22;13092;51.996;4.458;2023-01-16T09:26:17;6.00;99.90
25112;DHT22;13092;51.996;4.458;2023-01-16T09:28:45;6.00;99.90
25112;DHT22;13092;51.996;4.458;2023-01-16T09:31:13;6.00;99.90
25112;DHT22;13092;51.996;4.458;2023-01-16T09:33:43;6.20;99.90
25112;DHT22;13092;51.996;4.458;2023-01-16T09:36:12;6.10;99.90
25112;DHT22;13092;51.996;4.458;2023-01-16T09:38:40;6.00;99.90
25112;DHT22;13092;51.996;4.458;2023-01-16T09:41:13;6.10;99.90
25112;DHT22;13092;51.996;4.458;2023-01-16T09:44:06;6.10;99.90
25112;DHT22;13092;51.996;4.458;2023-01-16T09:46:36;6.20;99.90
25112;DHT22;13092;51.996;4.458;2023-01-16T09:49:18;6.20;99.90
25112;DHT22;13092;51.996;4.458;2023-01-16T09:51:51;6.20;99.90
25112;DHT22;13092;51.996;4.458;2023-01-16T09:54:40;6.10;99.90
25112;DHT22;13092;51.996;4.458;2023-01-16T09:57:28;6.10;99.90
25112;DHT22;13092;51.996;4.458;2023-01-16T10:00:16;6.20;99.90
25112;DHT22;13092;51.996;4.458;2023-01-16T10:02:47;6.20;99.90
25112;DHT22;13092;51.996;4.458;2023-01-16T10:05:17;6.10;99.90
25112;DHT22;13092;51.996;4.458;2023-01-16T10:07:49;6.20;99.90
25112;DHT22;13092;51.996;4.458;2023-01-16T10:10:39;6.20;99.90
25112;DHT22;13092;51.996;4.458;2023-01-16T10:13:19;6.20;99.90
25112;DHT22;13092;51.996;4.458;2023-01-16T10:15:54;6.20;99.90
25112;DHT22;13092;51.996;4.458;2023-01-16T10:18:34;6.20;99.90
25112;DHT22;13092;51.996;4.458;2023-01-16T10:21:22;6.30;99.90
25112;DHT22;13092;51.996;4.458;2023-01-16T10:23:59;6.20;99.90
25112;DHT22;13092;51.996;4.458;2023-01-16T10:26:30;6.20;99.90
25112;DHT22;13092;51.996;4.458;2023-01-16T10:29:04;6.20;99.90
25112;DHT22;13092;51.996;4.458;2023-01-16T10:31:40;6.20;99.90
25112;DHT22;13092;51.996;4.458;2023-01-16T10:34:13;6.30;99.90
25112;DHT22;13092;51.996;4.458;2023-01-16T10:36:51;6.40;99.90
25112;DHT22;13092;51.996;4.458;2023-01-16T10:39:30;6.40;99.90
25112;DHT22;13092;51.996;4.458;2023-01-16T10:42:10;6.40;99.90
25112;DHT22;13092;51.996;4.458;2023-01-16T10:45:01;6.60;99.90
25112;DHT22;13092;51.996;4.458;2023-01-16T10:47:55;6.40;99.90
25112;DHT22;13092;51.996;4.458;2023-01-16T10:50:40;6.40;99.90
25112;DHT22;13092;51.996;4.458;2023-01-16T10:53:11;6.50;99.90
25112;DHT22;13092;51.996;4.458;2023-01-16T10:55:42;6.50;99.90
25112;DHT22;13092;51.996;4.458;2023-01-16T10:58:22;6.50;99.90
25112;DHT22;13092;51.996;4.458;2023-01-16T11:00:54;6.50;99.90
25112;DHT22;13092;51.996;4.458;2023-01-16T11:03:31;6.60;99.90
25112;DHT22;13092;51.996;4.458;2023-01-16T11:06:13;6.60;99.90
25112;DHT22;13092;51.996;4.458;2023-01-16T11:08:48;6.60;99.90
25112;DHT22;13092;51.996;4.458;2023-01-16T11:11:16;6.60;99.90
25112;DHT22;13092;51.996;4.458;2023-01-16T11:14:10;6.60;99.90
25112;DHT22;13092;51.996;4.458;2023-01-16T11:17:15;6.70;99.90
25112;DHT22;13092;51.996;4.458;2023-01-16T11:20:07;6.80;99.90
25112;DHT22;13092;51.996;4.458;2023-01-16T11:22:39;6.80;99.90
25112;DHT22;13092;51.996;4.458;2023-01-16T11:25:14;6.90;99.90
25112;DHT22;13092;51.996;4.458;2023-01-16T11:27:45;6.90;99.90
25112;DHT22;13092;51.996;4.458;2023-01-16T11:30:18;6.90;99.90
25112;DHT22;13092;51.996;4.458;2023-01-16T11:32:48;7.10;99.90
25112;DHT22;13092;51.996;4.458;2023-01-16T11:35:18;7.10;99.90
25112;DHT22;13092;51.996;4.458;2023-01-16T11:37:49;7.20;99.90
25112;DHT22;13092;51.996;4.458;2023-01-16T11:40:22;7.20;99.90
25112;DHT22;13092;51.996;4.458;2023-01-16T11:42:52;7.30;99.90
25112;DHT22;13092;51.996;4.458;2023-01-16T11:45:43;7.50;99.90
25112;DHT22;13092;51.996;4.458;2023-01-16T11:48:35;7.40;99.90
25112;DHT22;13092;51.996;4.458;2023-01-16T11:51:05;7.60;99.90
25112;DHT22;13092;51.996;4.458;2023-01-16T11:53:35;7.60;99.90
25112;DHT22;13092;51.996;4.458;2023-01-16T11:56:21;7.60;99.90
25112;DHT22;13092;51.996;4.458;2023-01-16T11:59:01;7.70;99.90
25112;DHT22;13092;51.996;4.458;2023-01-16T12:01:50;7.80;99.90
25112;DHT22;13092;51.996;4.458;2023-01-16T12:04:41;7.90;99.90
25112;DHT22;13092;51.996;4.458;2023-01-16T12:07:39;8.00;99.90
25112;DHT22;13092;51.996;4.458;2023-01-16T12:10:23;8.00;99.90
25112;DHT22;13092;51.996;4.458;2023-01-16T12:13:01;8.10;99.90
25112;DHT22;13092;51.996;4.458;2023-01-16T12:16:06;8.20;99.90
25112;DHT22;13092;51.996;4.458;2023-01-16T12:18:43;8.20;99.90
25112;DHT22;13092;51.996;4.458;2023-01-16T12:21:27;8.30;99.90
25112;DHT22;13092;51.996;4.458;2023-01-16T12:24:18;8.30;99.90
25112;DHT22;13092;51.996;4.458;2023-01-16T12:27:06;8.30;99.90
25112;DHT22;13092;51.996;4.458;2023-01-16T12:29:47;8.10;99.90
25112;DHT22;13092;51.996;4.458;2023-01-16T12:32:29;8.20;99.90
25112;DHT22;13092;51.996;4.458;2023-01-16T12:35:23;8.20;99.90
25112;DHT22;13092;51.996;4.458;2023-01-16T12:38:10;8.30;99.90
25112;DHT22;13092;51.996;4.458;2023-01-16T12:40:51;8.40;99.90
25112;DHT22;13092;51.996;4.458;2023-01-16T12:43:53;8.40;99.90
25112;DHT22;13092;51.996;4.458;2023-01-16T12:46:30;8.60;99.90
25112;DHT22;13092;51.996;4.458;2023-01-16T12:49:11;8.40;99.90
25112;DHT22;13092;51.996;4.458;2023-01-16T12:51:57;8.40;99.90
25112;DHT22;13092;51.996;4.458;2023-01-16T12:54:35;8.30;99.90
25112;DHT22;13092;51.996;4.458;2023-01-16T12:57:23;8.30;99.90
25112;DHT22;13092;51.996;4.458;2023-01-16T13:00:01;8.30;99.90
25112;DHT22;13092;51.996;4.458;2023-01-16T13:02:36;8.30;99.90
25112;DHT22;13092;51.996;4.458;2023-01-16T13:05:09;8.10;99.90
25112;DHT22;13092;51.996;4.458;2023-01-16T13:07:45;8.40;99.90
25112;DHT22;13092;51.996;4.458;2023-01-16T13:10:19;8.10;99.90
25112;DHT22;13092;51.996;4.458;2023-01-16T13:13:13;8.20;99.90
25112;DHT22;13092;51.996;4.458;2023-01-16T13:15:57;8.10;99.90
25112;DHT22;13092;51.996;4.458;2023-01-16T13:18:32;8.00;99.90
25112;DHT22;13092;51.996;4.458;2023-01-16T13:21:04;8.00;99.90
25112;DHT22;13092;51.996;4.458;2023-01-16T13:23:39;8.00;99.90
25112;DHT22;13092;51.996;4.458;2023-01-16T13:26:11;7.90;99.90
25112;DHT22;13092;51.996;4.458;2023-01-16T13:28:46;8.00;99.90
25112;DHT22;13092;51.996;4.458;2023-01-16T13:31:25;7.90;99.90
25112;DHT22;13092;51.996;4.458;2023-01-16T13:34:00;7.80;99.90
25112;DHT22;13092;51.996;4.458;2023-01-16T13:37:10;7.80;99.90
25112;DHT22;13092;51.996;4.458;2023-01-16T13:40:10;7.90;99.90
25112;DHT22;13092;51.996;4.458;2023-01-16T13:42:49;8.00;99.90
25112;DHT22;13092;51.996;4.458;2023-01-16T13:45:31;8.00;99.90
25112;DHT22;13092;51.996;4.458;2023-01-16T13:48:15;8.10;99.90
25112;DHT22;13092;51.996;4.458;2023-01-16T13:50:51;8.30;99.90
25112;DHT22;13092;51.996;4.458;2023-01-16T13:53:20;8.00;99.90
25112;DHT22;13092;51.996;4.458;2023-01-16T13:55:50;8.10;99.90
25112;DHT22;13092;51.996;4.458;2023-01-16T13:58:27;8.10;99.90
25112;DHT22;13092;51.996;4.458;2023-01-16T14:00:58;8.30;99.90
25112;DHT22;13092;51.996;4.458;2023-01-16T14:03:28;8.30;99.90
25112;DHT22;13092;51.996;4.458;2023-01-16T14:06:16;8.20;99.90
25112;DHT22;13092;51.996;4.458;2023-01-16T14:08:48;8.20;99.90
25112;DHT22;13092;51.996;4.458;2023-01-16T14:11:58;8.20;99.90
25112;DHT22;13092;51.996;4.458;2023-01-16T14:14:46;8.20;99.90
25112;DHT22;13092;51.996;4.458;2023-01-16T14:20:42;8.30;99.90
25112;DHT22;13092;51.996;4.458;2023-01-16T14:23:24;8.40;99.90
25112;DHT22;13092;51.996;4.458;2023-01-16T14:26:17;8.30;99.90
25112;DHT22;13092;51.996;4.458;2023-01-16T14:28:47;8.30;99.90
25112;DHT22;13092;51.996;4.458;2023-01-16T14:31:24;8.30;99.90
25112;DHT22;13092;51.996;4.458;2023-01-16T14:33:55;8.40;99.90
25112;DHT22;13092;51.996;4.458;2023-01-16T14:36:27;8.40;99.90
25112;DHT22;13092;51.996;4.458;2023-01-16T14:38:57;8.40;99.90
25112;DHT22;13092;51.996;4.458;2023-01-16T14:41:28;8.30;99.90
25112;DHT22;13092;51.996;4.458;2023-01-16T14:44:17;8.30;99.90
25112;DHT22;13092;51.996;4.458;2023-01-16T14:47:22;8.30;99.90
25112;DHT22;13092;51.996;4.458;2023-01-16T14:50:10;8.30;99.90
25112;DHT22;13092;51.996;4.458;2023-01-16T14:53:17;8.10;99.90
25112;DHT22;13092;51.996;4.458;2023-01-16T14:56:26;8.10;99.90
25112;DHT22;13092;51.996;4.458;2023-01-16T14:58:59;8.10;99.90
25112;DHT22;13092;51.996;4.458;2023-01-16T15:01:34;8.00;99.90
25112;DHT22;13092;51.996;4.458;2023-01-16T15:04:22;8.00;99.90
25112;DHT22;13092;51.996;4.458;2023-01-16T15:06:55;8.00;99.90
25112;DHT22;13092;51.996;4.458;2023-01-16T15:09:27;7.80;99.90
25112;DHT22;13092;51.996;4.458;2023-01-16T15:11:59;7.70;99.90
25112;DHT22;13092;51.996;4.458;2023-01-16T15:14:28;7.50;99.90
25112;DHT22;13092;51.996;4.458;2023-01-16T15:17:06;7.30;99.90
25112;DHT22;13092;51.996;4.458;2023-01-16T15:20:00;7.20;99.90
25112;DHT22;13092;51.996;4.458;2023-01-16T15:22:48;7.00;99.90
25112;DHT22;13092;51.996;4.458;2023-01-16T15:25:28;6.90;99.90
25112;DHT22;13092;51.996;4.458;2023-01-16T15:28:11;6.80;99.90
25112;DHT22;13092;51.996;4.458;2023-01-16T15:30:45;6.80;99.90
25112;DHT22;13092;51.996;4.458;2023-01-16T15:33:25;6.70;99.90
25112;DHT22;13092;51.996;4.458;2023-01-16T15:36:16;6.60;99.90
25112;DHT22;13092;51.996;4.458;2023-01-16T15:38:46;6.60;99.90
25112;DHT22;13092;51.996;4.458;2023-01-16T15:41:17;6.60;99.90
25112;DHT22;13092;51.996;4.458;2023-01-16T15:44:13;6.50;99.90
25112;DHT22;13092;51.996;4.458;2023-01-16T15:47:16;6.50;99.90
25112;DHT22;13092;51.996;4.458;2023-01-16T15:49:57;6.60;99.90
25112;DHT22;13092;51.996;4.458;2023-01-16T15:52:33;6.40;99.90
25112;DHT22;13092;51.996;4.458;2023-01-16T15:55:11;6.10;99.90
25112;DHT22;13092;51.996;4.458;2023-01-16T15:57:46;6.20;99.90
25112;DHT22;13092;51.996;4.458;2023-01-16T16:00:30;6.10;99.90
25112;DHT22;13092;51.996;4.458;2023-01-16T16:03:00;6.00;99.90
25112;DHT22;13092;51.996;4.458;2023-01-16T16:05:29;5.90;99.90
25112;DHT22;13092;51.996;4.458;2023-01-16T16:07:58;5.90;99.90
25112;DHT22;13092;51.996;4.458;2023-01-16T16:10:27;5.90;99.90
25112;DHT22;13092;51.996;4.458;2023-01-16T16:13:16;6.00;99.90
25112;DHT22;13092;51.996;4.458;2023-01-16T16:15:58;5.80;99.90
25112;DHT22;13092;51.996;4.458;2023-01-16T16:18:54;5.90;99.90
25112;DHT22;13092;51.996;4.458;2023-01-16T16:21:25;5.90;99.90
25112;DHT22;13092;51.996;4.458;2023-01-16T16:24:01;5.90;99.90
25112;DHT22;13092;51.996;4.458;2023-01-16T16:26:31;5.90;99.90
25112;DHT22;13092;51.996;4.458;2023-01-16T16:29:02;5.90;99.90
25112;DHT22;13092;51.996;4.458;2023-01-16T16:31:33;5.90;99.90
25112;DHT22;13092;51.996;4.458;2023-01-16T16:34:05;5.90;99.90
25112;DHT22;13092;51.996;4.458;2023-01-16T16:36:38;5.90;99.90
25112;DHT22;13092;51.996;4.458;2023-01-16T16:39:27;5.90;99.90
25112;DHT22;13092;51.996;4.458;2023-01-16T16:41:57;5.90;99.90
25112;DHT22;13092;51.996;4.458;2023-01-16T16:44:45;6.00;99.90
25112;DHT22;13092;51.996;4.458;2023-01-16T16:47:26;6.00;99.90